Time;durP1;ratioP1;P1;durP2;ratioP2;P2;SDS_P1;SDS_P2;PMS_P1;PMS_P2;Temp;Humidity;BMP_temperature;BMP_pressure;BME280_temperature;BME280_humidity;BME280_pressure;Samples;Min_cycle;Max_cycle;Signal;HPM_P1;HPM_P2
2023/03/31 00:00:35;;;;;;;10.13;4.27;;;14.90;99.90;;;;;;5054520;28;20040;-67
2023/03/31 00:03:01;;;;;;;13.17;4.23;;;14.90;99.90;;;;;;5055131;28;20038;-67
2023/03/31 00:05:27;;;;;;;14.02;4.63;;;14.90;99.90;;;;;;5056127;28;20020;-67
2023/03/31 00:07:59;;;;;;;18.73;4.18;;;14.90;99.90;;;;;;5057760;28;20029;-67
2023/03/31 00:10:27;;;;;;;17.48;4.72;;;14.90;99.90;;;;;;5059970;28;20029;-67
2023/03/31 00:12:52;;;;;;;11.77;4.50;;;14.90;99.90;;;;;;5051026;28;20020;-67
2023/03/31 00:15:18;;;;;;;19.53;5.30;;;14.90;99.90;;;;;;5046460;28;20032;-67
2023/03/31 00:17:46;;;;;;;12.95;4.43;;;14.90;99.90;;;;;;5054020;28;20040;-67
2023/03/31 00:20:12;;;;;;;9.60;4.57;;;14.90;99.90;;;;;;5052942;28;20040;-67
2023/03/31 00:22:40;;;;;;;15.75;5.00;;;14.90;99.90;;;;;;5052122;28;20021;-67
2023/03/31 00:25:09;;;;;;;10.57;4.28;;;14.80;99.90;;;;;;5056425;28;20522;-67
2023/03/31 00:27:35;;;;;;;14.80;5.03;;;14.90;99.90;;;;;;5051562;28;20823;-67
2023/03/31 00:30:01;;;;;;;14.87;5.37;;;14.80;99.90;;;;;;5050992;28;20025;-67
2023/03/31 00:32:26;;;;;;;13.57;4.63;;;14.80;99.90;;;;;;5048106;28;20566;-67
2023/03/31 00:34:52;;;;;;;22.67;5.93;;;14.70;99.90;;;;;;5048152;28;20025;-67
2023/03/31 00:37:17;;;;;;;20.33;5.60;;;14.80;99.90;;;;;;5054486;28;20052;-67
2023/03/31 00:39:43;;;;;;;17.40;5.70;;;14.80;99.90;;;;;;5055954;28;20120;-67
2023/03/31 00:42:12;;;;;;;12.50;4.83;;;14.80;99.90;;;;;;5042913;28;20029;-67
2023/03/31 00:45:17;;;;;;;15.82;4.78;;;14.80;99.90;;;;;;5054158;28;20481;-67
2023/03/31 00:47:50;;;;;;;24.30;4.88;;;14.90;99.90;;;;;;5045663;28;20029;-67
2023/03/31 00:50:24;;;;;;;15.32;4.88;;;14.90;99.90;;;;;;5049001;28;20871;-67
2023/03/31 00:52:58;;;;;;;14.27;5.70;;;14.80;99.90;;;;;;5054484;28;20040;-67
2023/03/31 00:55:32;;;;;;;13.85;5.60;;;14.80;99.90;;;;;;5048412;28;20532;-67
2023/03/31 00:58:00;;;;;;;14.27;5.53;;;14.80;99.90;;;;;;5044647;28;20115;-67
2023/03/31 01:00:26;;;;;;;11.55;5.18;;;14.70;99.90;;;;;;5051721;28;20078;-67
2023/03/31 01:03:00;;;;;;;12.25;5.15;;;14.70;99.90;;;;;;5055481;28;20409;-67
2023/03/31 01:05:31;;;;;;;15.65;5.82;;;14.70;99.90;;;;;;5052925;28;20079;-67
2023/03/31 01:07:59;;;;;;;13.15;5.28;;;14.60;99.90;;;;;;5039205;28;20571;-67
2023/03/31 01:10:25;;;;;;;20.23;5.57;;;14.60;99.90;;;;;;5051685;28;20064;-67
2023/03/31 01:12:54;;;;;;;11.18;5.30;;;14.50;99.90;;;;;;5055028;28;20033;-67
2023/03/31 01:15:20;;;;;;;12.60;5.15;;;14.50;99.90;;;;;;5053494;28;20032;-67
2023/03/31 01:17:48;;;;;;;16.02;4.90;;;14.50;99.90;;;;;;5049083;28;20048;-67
2023/03/31 01:20:18;;;;;;;14.48;6.03;;;14.50;99.90;;;;;;5046967;28;20110;-67
2023/03/31 01:23:08;;;;;;;13.65;6.00;;;14.50;99.90;;;;;;5051998;28;20029;-67
2023/03/31 01:26:14;;;;;;;13.07;5.57;;;14.50;99.90;;;;;;5056904;28;20037;-67
2023/03/31 01:28:45;;;;;;;14.85;5.40;;;14.50;99.90;;;;;;5041873;28;20029;-67
2023/03/31 01:31:33;;;;;;;20.33;6.43;;;14.40;99.90;;;;;;5052336;28;20535;-67
2023/03/31 01:34:16;;;;;;;17.98;5.75;;;14.40;99.90;;;;;;5049565;28;20051;-67
2023/03/31 01:36:48;;;;;;;14.95;5.47;;;14.40;99.90;;;;;;5048862;28;20033;-67
2023/03/31 01:39:29;;;;;;;17.88;5.40;;;14.40;99.90;;;;;;5048442;28;20060;-67
2023/03/31 01:42:04;;;;;;;18.95;5.40;;;14.40;99.90;;;;;;5050483;28;20032;-67
2023/03/31 01:44:50;;;;;;;15.90;5.35;;;14.40;99.90;;;;;;5049434;28;20026;-67
2023/03/31 01:47:22;;;;;;;13.43;5.85;;;14.40;99.90;;;;;;5039395;28;20045;-67
2023/03/31 01:50:10;;;;;;;18.58;5.97;;;14.40;99.90;;;;;;5049889;28;20053;-67
2023/03/31 01:52:49;;;;;;;13.55;5.70;;;14.40;99.90;;;;;;5052803;28;20037;-67
2023/03/31 01:55:23;;;;;;;15.60;6.00;;;14.40;99.90;;;;;;5051595;28;20039;-67
2023/03/31 01:57:55;;;;;;;19.98;5.70;;;14.40;99.90;;;;;;5044616;28;20500;-67
2023/03/31 02:00:28;;;;;;;16.05;5.82;;;14.40;99.90;;;;;;5049108;28;20473;-67
2023/03/31 02:03:04;;;;;;;19.88;6.90;;;14.40;99.90;;;;;;5050327;28;20029;-67
2023/03/31 02:05:36;;;;;;;12.65;5.10;;;14.40;99.90;;;;;;5044360;28;20086;-67
2023/03/31 02:08:33;;;;;;;11.93;4.53;;;14.40;99.90;;;;;;5046959;28;20032;-67
2023/03/31 02:10:59;;;;;;;17.13;5.60;;;14.40;99.90;;;;;;5040559;28;20419;-67
2023/03/31 02:13:27;;;;;;;19.38;5.13;;;14.40;99.90;;;;;;5048636;28;20043;-67
2023/03/31 02:16:01;;;;;;;18.42;6.00;;;14.40;99.90;;;;;;5056236;28;20488;-67
2023/03/31 02:18:32;;;;;;;19.85;5.97;;;14.30;99.90;;;;;;5048027;28;20119;-67
2023/03/31 02:20:59;;;;;;;15.13;5.47;;;14.30;99.90;;;;;;5049794;28;20044;-67
2023/03/31 02:23:30;;;;;;;13.90;5.13;;;14.20;99.90;;;;;;5052850;28;20075;-67
2023/03/31 02:26:26;;;;;;;16.67;5.32;;;14.20;99.90;;;;;;5053621;28;20064;-67
2023/03/31 02:28:52;;;;;;;14.73;5.53;;;14.20;99.90;;;;;;5050945;28;20026;-67
2023/03/31 02:31:38;;;;;;;23.27;5.53;;;14.20;99.90;;;;;;5048602;28;20515;-67
2023/03/31 02:34:03;;;;;;;21.35;5.95;;;14.20;99.90;;;;;;5044827;28;20017;-67
2023/03/31 02:36:29;;;;;;;14.77;5.17;;;14.20;99.90;;;;;;5055861;28;20412;-67
2023/03/31 02:39:01;;;;;;;11.33;4.90;;;14.10;99.90;;;;;;5038182;28;20400;-67
2023/03/31 02:41:26;;;;;;;16.33;5.80;;;14.10;99.90;;;;;;5049264;28;20044;-67
2023/03/31 02:43:52;;;;;;;17.20;4.80;;;14.10;99.90;;;;;;5052196;28;20514;-67
2023/03/31 02:46:18;;;;;;;14.47;5.07;;;14.10;99.90;;;;;;5053195;28;20087;-67
2023/03/31 02:48:52;;;;;;;18.63;5.40;;;14.10;99.90;;;;;;5046233;28;20112;-67
2023/03/31 02:51:26;;;;;;;19.48;5.32;;;14.10;99.90;;;;;;5046684;28;20472;-67
2023/03/31 02:54:30;;;;;;;18.85;5.18;;;14.10;99.90;;;;;;5059274;28;20039;-67
2023/03/31 02:57:13;;;;;;;19.20;5.90;;;14.10;99.90;;;;;;5050005;28;20044;-67
2023/03/31 03:00:06;;;;;;;11.85;4.22;;;14.20;99.90;;;;;;5051654;28;20165;-67
2023/03/31 03:03:02;;;;;;;15.13;4.55;;;14.10;99.90;;;;;;5047241;28;20039;-67
2023/03/31 03:05:48;;;;;;;13.73;4.68;;;14.10;99.90;;;;;;5043503;28;20037;-67
2023/03/31 03:08:30;;;;;;;13.00;4.60;;;14.20;99.90;;;;;;5039911;28;20028;-67
2023/03/31 03:11:10;;;;;;;17.90;4.22;;;14.10;99.90;;;;;;5047179;28;21020;-67
2023/03/31 03:13:36;;;;;;;14.48;4.65;;;14.10;99.90;;;;;;5044734;28;20036;-67
2023/03/31 03:16:17;;;;;;;21.47;5.13;;;14.10;99.90;;;;;;5047871;28;20028;-67
2023/03/31 03:18:51;;;;;;;18.33;4.25;;;14.10;99.90;;;;;;5047495;28;20022;-67
2023/03/31 03:21:16;;;;;;;19.58;4.20;;;14.10;99.90;;;;;;5045825;28;20584;-67
2023/03/31 03:23:42;;;;;;;12.47;3.37;;;14.00;99.90;;;;;;5046612;28;20603;-67
2023/03/31 03:26:07;;;;;;;19.80;4.73;;;14.00;99.90;;;;;;5058284;28;20032;-67
2023/03/31 03:28:33;;;;;;;13.53;3.73;;;14.00;99.90;;;;;;5038248;28;20025;-67
2023/03/31 03:30:59;;;;;;;25.20;4.50;;;14.00;99.90;;;;;;5050733;28;20083;-67
2023/03/31 03:33:24;;;;;;;11.20;3.77;;;14.00;99.90;;;;;;5052456;28;20029;-67
2023/03/31 03:35:50;;;;;;;15.67;3.87;;;14.00;99.90;;;;;;5050090;28;20279;-67
2023/03/31 03:38:16;;;;;;;17.77;5.70;;;14.00;99.90;;;;;;5054983;28;20033;-67
2023/03/31 03:40:41;;;;;;;10.63;3.73;;;13.90;99.90;;;;;;5067993;28;20071;-67
2023/03/31 03:43:07;;;;;;;15.83;4.60;;;14.00;99.90;;;;;;5045103;28;20028;-67
2023/03/31 03:45:32;;;;;;;19.43;4.37;;;14.00;99.90;;;;;;5052205;28;20068;-67
2023/03/31 03:47:58;;;;;;;12.70;4.07;;;14.00;99.90;;;;;;5048198;28;20037;-67
2023/03/31 03:50:24;;;;;;;8.37;3.37;;;14.00;99.90;;;;;;5038634;28;20087;-67
2023/03/31 03:52:49;;;;;;;12.63;3.27;;;14.00;99.90;;;;;;5051512;28;20032;-67
2023/03/31 03:55:16;;;;;;;15.47;3.63;;;13.90;99.90;;;;;;5052592;28;20043;-67
2023/03/31 03:57:42;;;;;;;;;;;14.00;99.90;;;;;;5047305;28;20049;-67
2023/03/31 04:00:11;;;;;;;9.88;3.25;;;13.90;99.90;;;;;;5045662;28;19948;-67
2023/03/31 04:02:37;;;;;;;11.30;3.15;;;13.90;99.90;;;;;;5053601;28;20067;-67
2023/03/31 04:05:03;;;;;;;11.30;3.42;;;14.00;99.90;;;;;;5061532;28;20020;-67
2023/03/31 04:07:29;;;;;;;13.30;3.65;;;13.90;99.90;;;;;;5049964;28;20048;-67
2023/03/31 04:09:55;;;;;;;12.87;2.93;;;13.90;99.90;;;;;;5056036;28;20041;-67
2023/03/31 04:12:20;;;;;;;10.43;3.17;;;13.90;99.90;;;;;;5044723;28;20097;-67
2023/03/31 04:14:46;;;;;;;12.97;2.90;;;13.90;99.90;;;;;;5048731;28;20033;-67
2023/03/31 04:17:14;;;;;;;12.50;3.13;;;13.90;99.90;;;;;;5049840;28;20496;-67
2023/03/31 04:19:41;;;;;;;12.65;3.70;;;14.00;99.90;;;;;;5047012;28;20041;-67
2023/03/31 04:22:10;;;;;;;;;;;13.90;99.90;;;;;;5054787;28;20063;-67
2023/03/31 04:24:37;;;;;;;11.48;3.45;;;13.90;99.90;;;;;;5045294;28;19928;-67
2023/03/31 04:27:06;;;;;;;8.98;3.47;;;13.90;99.90;;;;;;5035243;28;20586;-67
2023/03/31 04:29:32;;;;;;;17.58;3.28;;;13.90;99.90;;;;;;5042129;28;20029;-67
2023/03/31 04:31:58;;;;;;;;;;;13.90;99.90;;;;;;5048564;28;20039;-67
2023/03/31 04:34:34;;;;;;;11.65;3.35;;;13.90;99.90;;;;;;5051740;28;21388;-67
2023/03/31 04:37:01;;;;;;;18.13;5.10;;;13.90;99.90;;;;;;5048804;28;20041;-67
2023/03/31 04:39:29;;;;;;;14.07;3.10;;;13.90;99.90;;;;;;5047034;28;20520;-67
2023/03/31 04:41:59;;;;;;;13.18;3.28;;;13.90;99.90;;;;;;5042504;28;20036;-67
2023/03/31 04:44:26;;;;;;;26.63;3.53;;;14.00;99.90;;;;;;5048499;28;20108;-67
2023/03/31 04:46:52;;;;;;;9.57;3.15;;;14.00;99.90;;;;;;5048818;28;20068;-67
2023/03/31 04:49:18;;;;;;;13.48;4.13;;;13.90;99.90;;;;;;5037872;28;20043;-67
2023/03/31 04:51:44;;;;;;;11.05;3.00;;;13.90;99.90;;;;;;5041977;28;20048;-67
2023/03/31 04:54:10;;;;;;;12.18;3.53;;;13.90;99.90;;;;;;5043134;28;20029;-67
2023/03/31 04:56:36;;;;;;;13.00;3.00;;;13.90;99.90;;;;;;5046172;28;20103;-67
2023/03/31 04:59:02;;;;;;;15.13;2.90;;;13.80;99.90;;;;;;5050039;28;20293;-67
2023/03/31 05:01:32;;;;;;;10.15;2.72;;;13.80;99.90;;;;;;5047853;28;20045;-67
2023/03/31 05:03:58;;;;;;;10.23;2.72;;;13.80;99.90;;;;;;5046189;28;20031;-67
2023/03/31 05:06:24;;;;;;;10.50;2.00;;;13.90;99.80;;;;;;5044625;28;20108;-68
2023/03/31 05:08:50;;;;;;;11.50;2.53;;;13.90;99.30;;;;;;5041506;28;20135;-67
2023/03/31 05:11:15;;;;;;;10.65;2.90;;;13.90;99.00;;;;;;5038459;28;20029;-67
2023/03/31 05:13:41;;;;;;;13.97;2.87;;;13.90;99.20;;;;;;5036971;28;20040;-67
2023/03/31 05:16:11;;;;;;;12.57;2.77;;;13.90;98.60;;;;;;5039757;28;20473;-67
2023/03/31 05:18:37;;;;;;;10.30;2.72;;;13.90;99.00;;;;;;5038495;28;20684;-67
2023/03/31 05:21:17;;;;;;;12.00;3.00;;;13.90;98.90;;;;;;5041687;28;20102;-67
2023/03/31 05:23:43;;;;;;;11.77;2.33;;;13.90;98.70;;;;;;5051495;28;20064;-66
2023/03/31 05:26:10;;;;;;;9.90;2.60;;;13.90;98.90;;;;;;5043677;28;20057;-69
2023/03/31 05:28:35;;;;;;;12.70;2.80;;;13.90;99.00;;;;;;5039324;28;20770;-68
2023/03/31 05:31:03;;;;;;;10.63;3.83;;;13.90;99.10;;;;;;5038748;28;20108;-67
2023/03/31 05:33:29;;;;;;;10.90;2.92;;;14.00;98.80;;;;;;5039149;28;20048;-68
2023/03/31 05:35:55;;;;;;;8.52;2.75;;;14.00;98.80;;;;;;5054574;28;20036;-68
2023/03/31 05:38:20;;;;;;;7.18;2.67;;;14.00;99.00;;;;;;5039267;28;20720;-68
2023/03/31 05:40:47;;;;;;;8.80;2.63;;;14.00;98.80;;;;;;5036227;28;20086;-67
2023/03/31 05:43:12;;;;;;;13.55;2.70;;;14.10;98.30;;;;;;5039708;28;20111;-67
2023/03/31 05:45:38;;;;;;;6.17;1.90;;;14.00;98.10;;;;;;5048323;28;20116;-67
2023/03/31 05:48:04;;;;;;;17.93;4.40;;;14.10;98.50;;;;;;5035808;28;20028;-67
2023/03/31 05:50:30;;;;;;;8.38;2.83;;;14.10;98.30;;;;;;5034721;28;20288;-68
2023/03/31 05:52:56;;;;;;;11.60;2.73;;;14.10;97.60;;;;;;5042178;28;20531;-68
2023/03/31 05:55:22;;;;;;;15.23;4.10;;;14.20;97.70;;;;;;5046915;28;20123;-68
2023/03/31 05:57:48;;;;;;;10.17;2.50;;;14.20;97.30;;;;;;5047654;28;20104;-68
2023/03/31 06:00:14;;;;;;;8.40;2.60;;;14.20;97.40;;;;;;5043486;28;20041;-68
2023/03/31 06:02:40;;;;;;;14.10;3.20;;;14.20;97.50;;;;;;5043164;28;20392;-68
2023/03/31 06:05:06;;;;;;;8.40;2.33;;;14.20;97.30;;;;;;5040645;28;20036;-66
2023/03/31 06:07:31;;;;;;;11.50;2.97;;;14.20;97.60;;;;;;5036086;28;20039;-67
2023/03/31 06:09:57;;;;;;;13.93;3.07;;;14.20;97.90;;;;;;5043576;28;20027;-67
2023/03/31 06:12:22;;;;;;;16.83;3.93;;;14.20;97.70;;;;;;5037432;28;20033;-67
2023/03/31 06:14:48;;;;;;;13.63;2.50;;;14.10;98.20;;;;;;5039430;28;20373;-67
2023/03/31 06:17:14;;;;;;;15.10;2.53;;;14.10;98.50;;;;;;5036108;28;20033;-66
2023/03/31 06:19:39;;;;;;;11.10;3.08;;;14.10;98.80;;;;;;5040513;28;20044;-66
2023/03/31 06:22:05;;;;;;;15.27;2.87;;;14.00;99.30;;;;;;5046613;28;20075;-67
2023/03/31 06:24:31;;;;;;;19.40;3.00;;;14.00;99.40;;;;;;5044218;28;20095;-67
2023/03/31 06:26:59;;;;;;;10.40;3.03;;;13.90;99.90;;;;;;5047294;28;20056;-66
2023/03/31 06:29:26;;;;;;;13.85;3.30;;;13.70;99.90;;;;;;5036237;28;20040;-67
2023/03/31 06:31:51;;;;;;;8.48;2.70;;;13.80;99.90;;;;;;5034451;28;20389;-67
2023/03/31 06:34:17;;;;;;;11.17;3.47;;;13.70;99.90;;;;;;5042159;28;20104;-67
2023/03/31 06:36:43;;;;;;;11.23;3.57;;;13.80;99.90;;;;;;5039195;28;20033;-66
2023/03/31 06:39:08;;;;;;;15.47;3.03;;;13.90;99.90;;;;;;5036525;28;20032;-66
2023/03/31 06:41:34;;;;;;;7.30;2.63;;;14.00;99.90;;;;;;5039366;28;20047;-66
2023/03/31 06:44:00;;;;;;;21.63;3.23;;;13.90;99.90;;;;;;5044386;28;20028;-66
2023/03/31 06:46:25;;;;;;;11.47;2.70;;;14.00;99.90;;;;;;5040907;28;20447;-67
2023/03/31 06:48:51;;;;;;;7.60;2.20;;;14.00;99.90;;;;;;5039079;28;20021;-66
2023/03/31 06:51:17;;;;;;;12.63;2.80;;;14.00;99.90;;;;;;5036705;28;20036;-66
2023/03/31 06:53:42;;;;;;;12.57;3.10;;;14.00;99.90;;;;;;5047354;28;20500;-66
2023/03/31 06:56:08;;;;;;;10.53;2.43;;;14.00;99.90;;;;;;5039486;28;20107;-66
2023/03/31 06:58:33;;;;;;;13.37;2.93;;;14.00;99.90;;;;;;5042330;28;20025;-66
2023/03/31 07:01:04;;;;;;;12.03;2.70;;;14.00;99.90;;;;;;5037435;28;20033;-67
2023/03/31 07:03:31;;;;;;;17.88;3.92;;;14.10;99.70;;;;;;5032965;28;20112;-67
2023/03/31 07:05:57;;;;;;;11.00;3.13;;;14.00;99.80;;;;;;5037603;28;20028;-67
2023/03/31 07:08:23;;;;;;;9.68;2.80;;;14.00;99.90;;;;;;5043738;28;20397;-66
2023/03/31 07:10:53;;;;;;;16.17;3.05;;;14.00;99.90;;;;;;5044018;28;20026;-67
2023/03/31 07:13:18;;;;;;;11.57;3.25;;;14.00;99.90;;;;;;5044556;28;20111;-66
2023/03/31 07:15:47;;;;;;;13.77;3.27;;;14.00;99.90;;;;;;5042559;28;20109;-66
2023/03/31 07:18:14;;;;;;;8.52;2.70;;;14.00;99.90;;;;;;5033838;28;20036;-67
2023/03/31 07:20:40;;;;;;;12.63;2.88;;;14.00;99.90;;;;;;5042072;28;20493;-68
2023/03/31 07:23:07;;;;;;;14.02;3.63;;;14.00;99.90;;;;;;5045727;28;20439;-69
2023/03/31 07:25:33;;;;;;;;;;;14.00;99.90;;;;;;5044194;28;20033;-66
2023/03/31 07:27:59;;;;;;;20.83;3.92;;;14.20;99.90;;;;;;5036789;28;19909;-69
2023/03/31 07:30:25;;;;;;;16.52;4.07;;;14.20;99.90;;;;;;5036489;28;20075;-70
2023/03/31 07:32:52;;;;;;;711.13;460.33;;;14.30;99.90;;;;;;5038080;28;20029;-68
2023/03/31 07:35:18;;;;;;;109.70;68.97;;;14.40;99.90;;;;;;5048994;28;20089;-69
2023/03/31 07:37:47;;;;;;;29.52;14.68;;;14.50;99.90;;;;;;5040555;28;20026;-66
2023/03/31 07:40:26;;;;;;;36.55;20.83;;;14.50;99.90;;;;;;5040470;28;20124;-66
2023/03/31 07:42:52;;;;;;;32.83;15.20;;;14.50;99.90;;;;;;5039983;28;20389;-67
2023/03/31 07:45:23;;;;;;;44.35;24.58;;;14.70;99.50;;;;;;5050926;28;20040;-68
2023/03/31 07:47:49;;;;;;;38.50;11.48;;;14.70;99.40;;;;;;5035689;28;20539;-68
2023/03/31 07:50:16;;;;;;;25.48;4.90;;;14.60;99.80;;;;;;5040606;28;20524;-66
2023/03/31 07:52:42;;;;;;;25.98;4.05;;;14.60;99.70;;;;;;5044361;28;20520;-67
2023/03/31 07:55:09;;;;;;;11.85;3.83;;;14.60;99.80;;;;;;5045263;28;20107;-66
2023/03/31 07:57:35;;;;;;;;;;;14.50;99.90;;;;;;5040086;28;20084;-67
2023/03/31 08:00:05;;;;;;;52.22;9.65;;;14.50;99.90;;;;;;5045321;28;19924;-66
2023/03/31 08:02:31;;;;;;;13.50;4.25;;;14.50;99.90;;;;;;5046375;28;20071;-66
2023/03/31 08:04:56;;;;;;;14.03;5.30;;;14.50;99.90;;;;;;5049436;28;20072;-68
2023/03/31 08:07:22;;;;;;;76.43;45.07;;;14.60;99.90;;;;;;5047402;28;20396;-67
2023/03/31 08:09:48;;;;;;;97.93;40.92;;;14.60;99.90;;;;;;5042921;28;20021;-66
2023/03/31 08:12:14;;;;;;;27.02;14.25;;;14.60;99.90;;;;;;5041365;28;20540;-65
2023/03/31 08:14:40;;;;;;;94.35;26.83;;;14.60;99.90;;;;;;5043759;28;20124;-65
2023/03/31 08:17:06;;;;;;;146.45;14.82;;;14.60;99.90;;;;;;5041995;28;20448;-65
2023/03/31 08:19:31;;;;;;;205.13;18.57;;;14.70;99.90;;;;;;5041991;28;20152;-65
2023/03/31 08:21:57;;;;;;;46.03;6.90;;;14.80;99.90;;;;;;5048185;28;20040;-67
2023/03/31 08:24:23;;;;;;;41.43;9.57;;;15.20;99.90;;;;;;5047219;28;20481;-66
2023/03/31 08:26:48;;;;;;;46.07;6.80;;;15.90;99.40;;;;;;5041072;28;20061;-68
2023/03/31 08:29:14;;;;;;;22.50;11.47;;;15.80;99.40;;;;;;5041927;28;20042;-67
2023/03/31 08:31:40;;;;;;;13.57;5.35;;;16.10;99.20;;;;;;5038444;28;20537;-67
2023/03/31 08:34:06;;;;;;;28.97;13.63;;;18.80;96.70;;;;;;5044215;28;20127;-68
2023/03/31 08:36:32;;;;;;;17.23;4.73;;;19.80;92.90;;;;;;5044134;28;20061;-67
2023/03/31 08:38:58;;;;;;;10.88;4.53;;;20.80;91.30;;;;;;5039972;28;20103;-69
2023/03/31 08:41:42;;;;;;;12.07;5.15;;;19.90;91.40;;;;;;5041242;28;20553;-68
2023/03/31 08:44:16;;;;;;;15.93;6.72;;;17.80;93.70;;;;;;5047321;28;20029;-68
2023/03/31 08:46:42;;;;;;;14.45;6.18;;;17.80;94.40;;;;;;5043890;28;20148;-70
2023/03/31 08:49:16;;;;;;;17.40;6.43;;;17.20;95.50;;;;;;5039125;28;20413;-67
2023/03/31 08:51:51;;;;;;;76.88;35.47;;;17.00;96.60;;;;;;5037847;28;20112;-70
2023/03/31 08:54:36;;;;;;;11.32;5.55;;;16.50;97.10;;;;;;5042519;28;20057;-68
2023/03/31 08:57:05;;;;;;;154.27;92.35;;;17.70;96.20;;;;;;5038504;28;20032;-74
2023/03/31 08:59:36;;;;;;;27.42;14.25;;;19.10;94.10;;;;;;5043002;28;20091;-72
2023/03/31 09:02:39;;;;;;;19.05;8.05;;;19.70;92.50;;;;;;5054264;28;20029;-68
2023/03/31 09:05:10;;;;;;;16.83;7.85;;;18.90;92.70;;;;;;5044245;28;20033;-69
2023/03/31 09:07:45;;;;;;;14.38;6.43;;;19.00;92.60;;;;;;5045966;28;20480;-68
2023/03/31 09:10:32;;;;;;;11.63;5.32;;;20.30;92.70;;;;;;5047777;28;20049;-68
2023/03/31 09:13:03;;;;;;;11.98;4.82;;;21.40;90.60;;;;;;5043825;28;20341;-70
2023/03/31 09:16:03;;;;;;;11.40;5.57;;;21.50;90.10;;;;;;5045557;28;20488;-67
2023/03/31 09:18:34;;;;;;;12.70;4.93;;;19.70;90.80;;;;;;5042735;28;20498;-69
2023/03/31 09:21:24;;;;;;;13.30;4.22;;;20.20;91.20;;;;;;5042769;28;20116;-69
2023/03/31 09:24:05;;;;;;;11.57;5.00;;;20.30;90.90;;;;;;5044844;28;20021;-69
2023/03/31 09:26:36;;;;;;;10.85;4.22;;;19.50;90.70;;;;;;5048643;28;20555;-67
2023/03/31 09:29:09;;;;;;;43.58;13.35;;;19.50;91.10;;;;;;5038285;28;20029;-67
2023/03/31 09:31:36;;;;;;;26.42;9.95;;;19.70;90.70;;;;;;5037589;28;20029;-67
2023/03/31 09:34:13;;;;;;;22.85;8.82;;;18.80;91.60;;;;;;5044880;28;20029;-67
2023/03/31 09:36:38;;;;;;;16.67;7.15;;;19.60;92.10;;;;;;5043132;28;20540;-67
2023/03/31 09:39:05;;;;;;;32.77;15.10;;;22.20;90.50;;;;;;5042811;28;20112;-67
2023/03/31 09:41:30;;;;;;;65.38;7.35;;;20.30;90.60;;;;;;5037106;28;20125;-67
2023/03/31 09:43:56;;;;;;;536.70;38.87;;;23.60;87.90;;;;;;5045344;28;20120;-66
2023/03/31 09:46:29;;;;;;;399.40;25.93;;;23.30;84.10;;;;;;5039751;28;20068;-66
2023/03/31 09:49:12;;;;;;;247.23;17.48;;;23.00;80.90;;;;;;5043593;28;20131;-66
2023/03/31 09:51:42;;;;;;;224.10;17.33;;;22.40;80.40;;;;;;5039878;28;20031;-67
2023/03/31 09:54:31;;;;;;;197.50;19.10;;;21.70;83.60;;;;;;5045112;28;20059;-67
2023/03/31 09:56:57;;;;;;;16.05;5.15;;;22.40;83.00;;;;;;5045783;28;20036;-67
2023/03/31 09:59:31;;;;;;;138.60;11.13;;;20.90;79.60;;;;;;5043239;28;20025;-68
2023/03/31 10:02:01;;;;;;;11.27;4.32;;;19.10;82.90;;;;;;5046229;28;20087;-70
2023/03/31 10:04:30;;;;;;;13.45;4.60;;;19.20;85.20;;;;;;5041409;28;20048;-68
2023/03/31 10:06:57;;;;;;;8.32;4.38;;;19.70;84.40;;;;;;5039371;28;20032;-68
2023/03/31 10:09:32;;;;;;;14.68;4.72;;;19.80;83.80;;;;;;5047889;28;20024;-68
2023/03/31 10:12:07;;;;;;;14.48;5.40;;;19.10;82.30;;;;;;5034617;28;20100;-68
2023/03/31 10:14:39;;;;;;;12.40;5.75;;;19.10;83.00;;;;;;5040942;28;20086;-70
2023/03/31 10:17:06;;;;;;;14.63;5.22;;;19.40;84.60;;;;;;5037085;28;20024;-69
2023/03/31 10:19:35;;;;;;;13.45;5.00;;;19.30;83.70;;;;;;5035802;28;20037;-69
2023/03/31 10:22:04;;;;;;;19.45;5.32;;;19.10;83.20;;;;;;5035441;28;20044;-69
2023/03/31 10:24:39;;;;;;;11.73;5.80;;;19.10;84.90;;;;;;5047841;28;20060;-70
2023/03/31 10:27:17;;;;;;;11.57;5.25;;;19.10;82.60;;;;;;5044645;28;20103;-72
2023/03/31 10:29:43;;;;;;;12.18;5.15;;;18.90;83.90;;;;;;5039323;28;20021;-68
2023/03/31 10:32:31;;;;;;;11.57;6.13;;;19.10;86.00;;;;;;5050211;28;20439;-68
2023/03/31 10:35:05;;;;;;;13.65;5.07;;;19.60;86.40;;;;;;5038817;28;20103;-68
2023/03/31 10:37:34;;;;;;;12.13;5.78;;;19.20;84.00;;;;;;5035378;28;20557;-68
2023/03/31 10:40:13;;;;;;;11.18;4.68;;;19.20;85.20;;;;;;5038507;28;20036;-67
2023/03/31 10:42:39;;;;;;;14.75;4.53;;;19.10;83.20;;;;;;5037185;28;20099;-69
2023/03/31 10:45:24;;;;;;;16.67;5.55;;;19.60;83.10;;;;;;5048553;28;20454;-69
2023/03/31 10:47:53;;;;;;;18.27;5.53;;;19.40;83.40;;;;;;5038326;28;20544;-68
2023/03/31 10:50:29;;;;;;;10.70;5.28;;;18.80;87.30;;;;;;5043139;28;20028;-68
2023/03/31 10:53:13;;;;;;;14.20;5.25;;;18.60;86.30;;;;;;5049276;28;20024;-68
2023/03/31 10:55:47;;;;;;;13.27;6.15;;;19.10;88.10;;;;;;5046670;28;20035;-71
2023/03/31 10:58:36;;;;;;;15.10;6.10;;;18.30;89.00;;;;;;5046661;28;20033;-69
2023/03/31 11:01:17;;;;;;;10.52;5.68;;;18.10;89.80;;;;;;5036349;28;20113;-70
2023/03/31 11:03:50;;;;;;;16.50;5.53;;;18.70;90.20;;;;;;5044427;28;20436;-69
2023/03/31 11:06:26;;;;;;;11.82;5.20;;;18.60;89.00;;;;;;5049029;28;20139;-69
2023/03/31 11:09:28;;;;;;;11.25;5.43;;;18.60;89.40;;;;;;5042172;28;20030;-69
2023/03/31 11:12:03;;;;;;;15.43;6.03;;;18.90;89.00;;;;;;5051589;28;20515;-69
2023/03/31 11:14:40;;;;;;;13.60;5.35;;;19.10;88.60;;;;;;5043411;28;20033;-70
2023/03/31 11:17:19;;;;;;;15.13;6.40;;;18.70;85.70;;;;;;5037339;28;20037;-68
2023/03/31 11:20:06;;;;;;;14.20;7.00;;;19.10;85.70;;;;;;5041879;28;20045;-70
2023/03/31 11:22:51;;;;;;;11.15;5.10;;;19.40;84.20;;;;;;5044217;28;20033;-71
2023/03/31 11:25:34;;;;;;;12.00;4.78;;;19.80;85.40;;;;;;5037517;28;20484;-70
2023/03/31 11:28:07;;;;;;;12.30;4.95;;;19.00;81.80;;;;;;5041074;28;20032;-69
2023/03/31 11:30:48;;;;;;;8.43;4.30;;;18.70;83.30;;;;;;5040859;28;20037;-69
2023/03/31 11:33:29;;;;;;;8.43;4.80;;;18.40;83.70;;;;;;5046511;28;20025;-70
2023/03/31 11:36:21;;;;;;;13.05;4.57;;;18.20;83.60;;;;;;5046050;28;20056;-67
2023/03/31 11:39:08;;;;;;;10.65;5.25;;;18.50;85.40;;;;;;5040269;28;20056;-68
2023/03/31 11:41:41;;;;;;;14.27;4.65;;;18.30;82.30;;;;;;5045075;28;20036;-69
2023/03/31 11:44:12;;;;;;;8.38;4.07;;;18.40;83.60;;;;;;5039996;28;20063;-71
2023/03/31 11:46:58;;;;;;;11.98;5.43;;;18.90;83.70;;;;;;5045323;28;20037;-68
2023/03/31 11:49:29;;;;;;;14.27;4.95;;;19.20;82.80;;;;;;5034439;28;20511;-68
2023/03/31 11:52:33;;;;;;;13.00;5.78;;;19.40;81.80;;;;;;5050289;28;20032;-70
2023/03/31 11:55:16;;;;;;;11.98;5.00;;;20.10;83.00;;;;;;5043461;28;20524;-70
2023/03/31 11:57:48;;;;;;;10.73;4.68;;;19.80;79.50;;;;;;5046196;28;20151;-70
2023/03/31 12:00:21;;;;;;;10.23;4.80;;;20.30;80.70;;;;;;5049203;28;20114;-72
2023/03/31 12:03:01;;;;;;;10.07;4.88;;;19.70;78.60;;;;;;5046067;28;20013;-68
2023/03/31 12:05:30;;;;;;;14.15;5.07;;;20.70;80.10;;;;;;5040529;28;20071;-71
2023/03/31 12:08:24;;;;;;;14.15;5.35;;;20.50;78.60;;;;;;5046142;28;20060;-68
2023/03/31 12:11:05;;;;;;;15.63;4.78;;;20.00;78.10;;;;;;5047668;28;20029;-75
2023/03/31 12:13:39;;;;;;;16.08;5.03;;;20.20;78.90;;;;;;5041103;28;20112;-67
2023/03/31 12:16:14;;;;;;;23.50;6.07;;;20.40;80.70;;;;;;5046019;28;20028;-70
2023/03/31 12:18:56;;;;;;;12.05;5.00;;;20.00;78.60;;;;;;5042558;28;20029;-71
2023/03/31 12:21:23;;;;;;;12.50;4.65;;;20.40;80.50;;;;;;5036664;28;20042;-71
2023/03/31 12:23:49;;;;;;;12.43;4.80;;;20.20;78.40;;;;;;5044251;28;20805;-67
2023/03/31 12:26:42;;;;;;;14.38;5.50;;;20.00;78.20;;;;;;5036799;28;20037;-67
2023/03/31 12:29:32;;;;;;;14.48;5.10;;;20.20;79.20;;;;;;5046662;28;20082;-70
2023/03/31 12:32:02;;;;;;;12.88;5.35;;;20.50;77.90;;;;;;5039145;28;20489;-68
2023/03/31 12:34:28;;;;;;;19.25;5.70;;;20.00;80.40;;;;;;5043138;28;20112;-72
2023/03/31 12:37:36;;;;;;;13.38;5.35;;;19.30;80.70;;;;;;5046547;28;20524;-68
2023/03/31 12:40:30;;;;;;;19.73;5.13;;;19.20;81.60;;;;;;5045820;28;20127;-71
2023/03/31 12:43:15;;;;;;;11.90;4.65;;;19.40;81.90;;;;;;5043569;28;20479;-72
2023/03/31 12:46:10;;;;;;;15.20;4.78;;;19.40;77.40;;;;;;5038160;28;20140;-69
2023/03/31 12:48:56;;;;;;;9.70;4.30;;;19.90;77.30;;;;;;5037233;28;20041;-69
2023/03/31 12:52:14;;;;;;;13.73;4.43;;;20.30;75.00;;;;;;5032911;28;20037;-70
2023/03/31 12:54:39;;;;;;;12.30;4.82;;;20.10;75.90;;;;;;5033799;28;20095;-82
2023/03/31 12:57:08;;;;;;;24.13;5.27;;;20.20;78.80;;;;;;5038091;28;20033;-82
2023/03/31 12:59:35;;;;;;;15.10;5.43;;;20.20;78.10;;;;;;5033894;28;20053;-72
2023/03/31 13:02:16;;;;;;;12.80;4.65;;;20.30;80.00;;;;;;5034621;28;20047;-75